createdAt,value
2022-09-23T00:01:00.035Z,73.09
2022-09-23T00:02:01.618Z,72.51
2022-09-23T00:03:03.393Z,73.16
2022-09-23T00:04:04.797Z,72.92
2022-09-23T00:05:07.405Z,72.62
2022-09-23T00:06:10.334Z,72.72
2022-09-23T00:07:11.768Z,73.17
2022-09-23T00:08:13.167Z,73.49
2022-09-23T00:09:14.589Z,73.04
2022-09-23T00:10:16.006Z,73.00
2022-09-23T00:11:19.734Z,72.99
2022-09-23T00:12:22.529Z,73.01
2022-09-23T00:13:24.853Z,73.18
2022-09-23T00:14:26.840Z,73.77
2022-09-23T00:15:28.247Z,74.28
2022-09-23T00:16:32.793Z,74.32
2022-09-23T00:17:34.342Z,74.47
2022-09-23T00:18:35.839Z,74.82
2022-09-23T00:19:38.582Z,74.75
2022-09-23T00:20:40.008Z,74.23
2022-09-23T00:21:41.397Z,74.23
2022-09-23T00:22:42.867Z,74.50
2022-09-23T00:23:44.361Z,73.81
2022-09-23T00:24:45.743Z,73.06
2022-09-23T00:25:55.827Z,73.73
2022-09-23T00:26:57.213Z,74.56
2022-09-23T00:27:59.974Z,74.96
2022-09-23T00:29:01.420Z,74.92
2022-09-23T00:30:04.669Z,75.35
2022-09-23T00:31:08.196Z,75.21
2022-09-23T00:32:09.696Z,75.77
2022-09-23T00:33:11.155Z,76.28
2022-09-23T00:34:12.574Z,76.61
2022-09-23T00:35:14.018Z,76.66
2022-09-23T00:36:16.218Z,75.94
2022-09-23T00:37:17.650Z,75.82
2022-09-23T00:38:19.058Z,76.19
2022-09-23T00:39:20.466Z,75.53
2022-09-23T00:40:21.928Z,75.97
2022-09-23T00:41:23.972Z,75.58
2022-09-23T00:42:25.371Z,76.23
2022-09-23T00:43:39.531Z,76.25
2022-09-23T00:44:44.679Z,76.04
2022-09-23T00:45:49.415Z,76.54
2022-09-23T00:46:50.878Z,76.60
2022-09-23T00:47:54.867Z,76.50
2022-09-23T00:49:00.210Z,76.37
2022-09-23T00:50:05.770Z,75.99
2022-09-23T00:51:11.420Z,76.02
2022-09-23T00:52:16.930Z,76.80
2022-09-23T00:53:22.220Z,77.53
2022-09-23T00:54:26.124Z,78.10
2022-09-23T00:55:33.005Z,78.36
2022-09-23T00:56:35.548Z,78.31
2022-09-23T00:57:39.908Z,78.73
2022-09-23T00:58:45.495Z,78.92
2022-09-23T00:59:48.875Z,79.23
2022-09-23T01:00:50.708Z,78.88
2022-09-23T01:01:54.214Z,78.82
2022-09-23T01:02:55.620Z,79.02
2022-09-23T01:03:57.560Z,78.84
2022-09-23T01:05:00.860Z,79.08
2022-09-23T01:06:02.303Z,79.00
2022-09-23T01:07:04.019Z,79.24
2022-09-23T01:08:08.235Z,79.19
2022-09-23T01:09:09.735Z,79.73
2022-09-23T01:10:14.356Z,80.40
2022-09-23T01:11:30.023Z,80.16
2022-09-23T01:12:56.557Z,80.21
2022-09-23T01:14:14.167Z,80.40
2022-09-23T01:15:19.448Z,80.30
2022-09-23T01:16:29.997Z,80.54
2022-09-23T01:17:37.593Z,80.38
2022-09-23T01:18:46.475Z,80.31
2022-09-23T01:20:08.893Z,80.76
2022-09-23T01:21:23.170Z,81.27
2022-09-23T01:22:31.155Z,80.97
2022-09-23T01:24:07.777Z,81.25
2022-09-23T01:25:27.757Z,81.46
2022-09-23T01:26:48.397Z,81.45
2022-09-23T01:28:08.122Z,81.55
2022-09-23T01:29:34.089Z,81.97
2022-09-23T01:30:47.297Z,82.29
2022-09-23T01:31:57.198Z,82.57
2022-09-23T01:33:07.887Z,82.35
2022-09-23T01:34:13.140Z,81.98
2022-09-23T01:35:24.549Z,82.38
2022-09-23T01:36:35.822Z,82.45
2022-09-23T01:37:50.768Z,82.68
2022-09-23T01:38:59.196Z,82.34
2022-09-23T01:40:06.848Z,82.68
2022-09-23T01:41:20.588Z,82.47
2022-09-23T01:42:29.401Z,82.69
2022-09-23T01:43:37.791Z,82.54
2022-09-23T01:44:46.227Z,82.81
2022-09-23T01:45:54.121Z,82.72
2022-09-23T01:46:58.166Z,82.80
2022-09-23T01:48:06.617Z,82.77
2022-09-23T01:49:14.908Z,83.05
2022-09-23T01:50:19.069Z,83.46
2022-09-23T01:51:26.578Z,83.88
2022-09-23T01:52:35.760Z,83.63
2022-09-23T01:53:45.070Z,84.39
2022-09-23T01:54:53.198Z,84.62
2022-09-23T01:55:58.728Z,85.21
2022-09-23T01:57:04.731Z,84.94
2022-09-23T01:58:12.318Z,85.09
2022-09-23T01:59:18.508Z,85.45
2022-09-23T02:00:22.862Z,85.71
2022-09-23T02:01:31.021Z,85.59
2022-09-23T02:02:35.902Z,85.75
2022-09-23T02:03:43.986Z,85.48
2022-09-23T02:04:50.393Z,85.41
2022-09-23T02:05:55.936Z,85.70
2022-09-23T02:07:02.492Z,85.93
2022-09-23T02:08:08.791Z,85.51
2022-09-23T02:09:14.040Z,85.78
2022-09-23T02:10:19.573Z,85.59
2022-09-23T02:11:21.018Z,85.35
2022-09-23T02:12:25.451Z,85.33
2022-09-23T02:13:32.241Z,85.73
2022-09-23T02:14:40.101Z,85.50
2022-09-23T02:15:46.313Z,85.51
2022-09-23T02:16:52.027Z,85.71
2022-09-23T02:17:59.284Z,86.09
2022-09-23T02:19:07.131Z,85.76
2022-09-23T02:20:11.661Z,86.00
2022-09-23T02:21:16.678Z,86.54
2022-09-23T02:22:21.695Z,86.46
2022-09-23T02:23:27.939Z,86.48
2022-09-23T02:24:31.602Z,86.53
2022-09-23T02:25:44.894Z,86.71
2022-09-23T02:26:51.839Z,86.53
2022-09-23T02:28:01.297Z,86.94
2022-09-23T02:29:11.512Z,86.98
2022-09-23T02:30:17.093Z,87.14
2022-09-23T02:31:30.821Z,87.16
2022-09-23T02:32:39.993Z,87.30
2022-09-23T02:33:50.511Z,87.40
2022-09-23T02:34:58.566Z,87.87
2022-09-23T02:36:07.119Z,87.98
2022-09-23T02:37:15.980Z,88.14
2022-09-23T02:38:26.421Z,88.22
2022-09-23T02:39:37.201Z,88.79
2022-09-23T02:40:46.871Z,88.89
2022-09-23T02:41:55.467Z,89.11
2022-09-23T02:43:07.744Z,89.48
2022-09-23T02:44:12.584Z,89.54
2022-09-23T02:45:14.276Z,89.58
2022-09-23T02:46:16.791Z,89.43
2022-09-23T02:47:24.361Z,89.93
2022-09-23T02:48:32.249Z,89.94
2022-09-23T02:49:34.578Z,89.80
2022-09-23T02:50:37.644Z,89.80
2022-09-23T02:51:40.371Z,90.02
2022-09-23T02:52:41.822Z,89.98
2022-09-23T02:53:43.373Z,90.25
2022-09-23T02:54:44.947Z,90.44
2022-09-23T02:55:46.366Z,90.41
2022-09-23T02:56:47.823Z,90.39
2022-09-23T02:57:49.266Z,90.74
2022-09-23T02:58:53.907Z,90.78
2022-09-23T02:59:55.489Z,90.59
2022-09-23T03:01:07.587Z,90.55
2022-09-23T03:02:35.850Z,90.47
2022-09-23T03:03:46.719Z,91.07
2022-09-23T03:05:02.984Z,90.87
2022-09-23T03:06:14.916Z,90.85
2022-09-23T03:07:20.821Z,91.21
2022-09-23T03:08:36.888Z,91.44
2022-09-23T03:09:44.542Z,91.70
2022-09-23T03:10:55.934Z,91.66
2022-09-23T03:12:09.519Z,91.90
2022-09-23T03:13:19.267Z,92.20
2022-09-23T03:14:29.445Z,92.24
2022-09-23T03:15:36.173Z,92.02
2022-09-23T03:16:45.085Z,92.36
2022-09-23T03:17:55.524Z,92.07
2022-09-23T03:19:10.244Z,92.02
2022-09-23T03:20:20.405Z,92.33
2022-09-23T03:21:28.241Z,92.26
2022-09-23T03:22:33.835Z,92.72
2022-09-23T03:23:38.736Z,92.20
2022-09-23T03:24:42.593Z,92.41
2022-09-23T03:25:47.032Z,92.47
2022-09-23T03:26:49.738Z,92.69
2022-09-23T03:27:54.770Z,92.80
2022-09-23T03:28:57.001Z,92.96
2022-09-23T03:29:59.330Z,93.30
2022-09-23T03:31:00.938Z,92.98
2022-09-23T03:32:03.212Z,93.05
2022-09-23T03:33:08.436Z,93.21
2022-09-23T03:34:17.941Z,92.96
2022-09-23T03:35:22.234Z,93.01
2022-09-23T03:36:28.618Z,92.91
2022-09-23T03:37:33.261Z,93.18
2022-09-23T03:38:39.604Z,93.35
2022-09-23T03:39:44.275Z,93.38
2022-09-23T03:40:47.834Z,93.60
2022-09-23T03:41:51.660Z,93.19
2022-09-23T03:42:53.921Z,93.05
2022-09-23T03:43:57.429Z,93.13
2022-09-23T03:44:59.425Z,93.17
2022-09-23T03:46:00.888Z,92.92
2022-09-23T03:47:02.416Z,92.92
2022-09-23T03:48:03.963Z,93.02
2022-09-23T03:49:16.170Z,92.80
2022-09-23T03:50:18.072Z,92.97
2022-09-23T03:51:22.530Z,92.61
2022-09-23T03:52:25.376Z,92.64
2022-09-23T03:53:26.825Z,92.53
2022-09-23T03:54:28.478Z,92.77
2022-09-23T03:55:30.103Z,92.35
2022-09-23T03:56:31.528Z,92.13
2022-09-23T03:57:33.031Z,92.24
2022-09-23T03:58:34.407Z,92.22
2022-09-23T03:59:35.830Z,92.15
2022-09-23T04:00:37.309Z,92.09
2022-09-23T04:01:38.752Z,91.87
2022-09-23T04:02:40.897Z,91.80
2022-09-23T04:03:42.299Z,91.51
2022-09-23T04:04:45.452Z,91.70
2022-09-23T04:05:46.852Z,91.66
2022-09-23T04:06:48.315Z,91.96
2022-09-23T04:07:49.710Z,91.95
2022-09-23T04:08:51.103Z,91.90
2022-09-23T04:09:52.925Z,91.99
2022-09-23T04:10:59.517Z,91.58
2022-09-23T04:12:01.297Z,91.64
2022-09-23T04:13:02.712Z,91.65
2022-09-23T04:14:04.644Z,90.95
2022-09-23T04:15:07.158Z,91.49
2022-09-23T04:16:08.606Z,91.81
2022-09-23T04:17:10.392Z,91.83
2022-09-23T04:18:11.863Z,91.57
2022-09-23T04:19:14.274Z,91.84
2022-09-23T04:20:17.077Z,91.72
2022-09-23T04:21:18.784Z,92.32
2022-09-23T04:22:20.476Z,92.55
2022-09-23T04:23:21.874Z,92.33
2022-09-23T04:24:24.033Z,92.66
2022-09-23T04:25:25.503Z,92.59
2022-09-23T04:26:27.101Z,92.39
2022-09-23T04:27:28.529Z,92.40
2022-09-23T04:28:29.972Z,92.32
2022-09-23T04:29:31.410Z,92.48
2022-09-23T04:30:32.848Z,92.39
2022-09-23T04:31:34.752Z,92.48
2022-09-23T04:32:36.234Z,92.17
2022-09-23T04:33:37.655Z,92.62
2022-09-23T04:34:39.083Z,92.36
2022-09-23T04:35:41.924Z,92.60
2022-09-23T04:36:44.162Z,92.82
2022-09-23T04:37:47.720Z,92.72
2022-09-23T04:38:49.896Z,92.82
2022-09-23T04:39:51.347Z,92.57
2022-09-23T04:40:52.857Z,92.81
2022-09-23T04:41:54.366Z,92.93
2022-09-23T04:42:55.806Z,93.20
2022-09-23T04:43:57.429Z,93.13
2022-09-23T04:44:58.881Z,93.29
2022-09-23T04:46:00.993Z,93.67
2022-09-23T04:47:02.494Z,93.32
2022-09-23T04:48:03.990Z,93.65
2022-09-23T04:49:06.189Z,93.60
2022-09-23T04:50:08.462Z,93.21
2022-09-23T04:51:13.612Z,93.52
2022-09-23T04:52:15.047Z,93.15
2022-09-23T04:53:16.470Z,93.31
2022-09-23T04:54:17.957Z,92.87
2022-09-23T04:55:19.864Z,93.15
2022-09-23T04:56:23.407Z,93.08
2022-09-23T04:57:24.852Z,93.22
2022-09-23T04:58:26.263Z,93.08
2022-09-23T04:59:27.722Z,93.25
2022-09-23T05:00:29.230Z,92.95
2022-09-23T05:01:32.662Z,93.23
2022-09-23T05:02:34.298Z,93.84
2022-09-23T05:03:35.770Z,93.43
2022-09-23T05:04:37.278Z,93.52
2022-09-23T05:05:38.693Z,93.50
2022-09-23T05:06:41.598Z,93.73
2022-09-23T05:07:43.010Z,93.96
2022-09-23T05:08:49.940Z,93.96
2022-09-23T05:09:51.486Z,94.11
2022-09-23T05:10:56.743Z,94.04
2022-09-23T05:11:58.280Z,94.66
2022-09-23T05:12:59.739Z,94.86
2022-09-23T05:14:01.171Z,94.50
2022-09-23T05:15:03.005Z,94.61
2022-09-23T05:16:06.402Z,94.75
2022-09-23T05:17:07.923Z,94.61
2022-09-23T05:18:09.382Z,94.69
2022-09-23T05:19:10.996Z,94.47
2022-09-23T05:20:12.415Z,94.65
2022-09-23T05:21:16.038Z,94.81
2022-09-23T05:22:18.822Z,94.47
2022-09-23T05:23:20.256Z,94.55
2022-09-23T05:24:21.716Z,94.60
2022-09-23T05:25:23.128Z,94.42
2022-09-23T05:26:26.666Z,94.25
2022-09-23T05:27:28.421Z,93.91
2022-09-23T05:28:31.300Z,94.07
2022-09-23T05:29:32.939Z,93.66
2022-09-23T05:30:34.355Z,93.82
2022-09-23T05:31:35.857Z,93.31
2022-09-23T05:32:37.340Z,93.50
2022-09-23T05:33:38.751Z,93.57
2022-09-23T05:34:40.289Z,93.58
2022-09-23T05:35:46.623Z,93.26
2022-09-23T05:36:48.072Z,92.47
2022-09-23T05:37:50.875Z,92.57
2022-09-23T05:38:52.585Z,91.60
2022-09-23T05:39:54.016Z,91.04
2022-09-23T05:40:56.523Z,89.98
2022-09-23T05:41:57.966Z,89.66
2022-09-23T05:42:59.419Z,88.72
2022-09-23T05:44:01.482Z,88.56
2022-09-23T05:45:02.933Z,87.71
2022-09-23T05:46:08.179Z,87.32
2022-09-23T05:47:10.071Z,86.92
2022-09-23T05:48:11.525Z,86.47
2022-09-23T05:49:13.035Z,86.10
2022-09-23T05:50:14.750Z,85.37
2022-09-23T05:51:17.977Z,85.17
2022-09-23T05:52:19.414Z,84.87
2022-09-23T05:53:22.210Z,84.61
2022-09-23T05:54:23.604Z,84.41
2022-09-23T05:55:25.084Z,83.77
2022-09-23T05:56:28.253Z,83.79
2022-09-23T05:57:29.751Z,83.58
2022-09-23T05:58:31.180Z,83.29
2022-09-23T05:59:32.646Z,83.15
2022-09-23T06:00:34.041Z,82.89
2022-09-23T06:01:35.962Z,81.92
2022-09-23T06:02:37.550Z,81.31
2022-09-23T06:03:39.637Z,80.56
2022-09-23T06:04:41.044Z,79.69
2022-09-23T06:05:42.504Z,80.17
2022-09-23T06:06:43.970Z,80.23
2022-09-23T06:07:45.360Z,79.16
2022-09-23T06:08:48.132Z,78.60
2022-09-23T06:09:49.551Z,77.23
2022-09-23T06:10:54.337Z,76.68
2022-09-23T06:11:56.085Z,76.18
2022-09-23T06:12:57.501Z,77.49
2022-09-23T06:14:00.385Z,78.02
2022-09-23T06:15:01.856Z,78.41
2022-09-23T06:16:03.424Z,78.19
2022-09-23T06:17:04.900Z,78.26
2022-09-23T06:18:06.835Z,77.73
2022-09-23T06:19:08.349Z,78.10
2022-09-23T06:20:10.253Z,77.64
2022-09-23T06:21:13.602Z,77.45
2022-09-23T06:22:15.027Z,77.57
2022-09-23T06:23:16.440Z,76.90
2022-09-23T06:24:22.309Z,77.40
2022-09-23T06:25:24.512Z,76.58
2022-09-23T06:26:26.366Z,76.37
2022-09-23T06:27:27.771Z,76.30
2022-09-23T06:28:30.703Z,76.38
2022-09-23T06:29:32.120Z,76.20
2022-09-23T06:30:33.510Z,75.92
2022-09-23T06:31:34.986Z,75.48
2022-09-23T06:32:36.473Z,75.53
2022-09-23T06:33:37.912Z,75.07
2022-09-23T06:34:50.293Z,75.21
2022-09-23T06:35:59.788Z,75.14
2022-09-23T06:37:10.315Z,73.86
2022-09-23T06:38:18.415Z,74.51
2022-09-23T06:39:21.145Z,74.26
2022-09-23T06:40:22.754Z,74.21
2022-09-23T06:41:24.347Z,74.02
2022-09-23T06:42:25.751Z,73.36
2022-09-23T06:43:27.188Z,73.97
2022-09-23T06:44:28.624Z,73.24
2022-09-23T06:45:30.007Z,74.09
2022-09-23T06:46:31.515Z,73.30
2022-09-23T06:47:33.190Z,74.70
2022-09-23T06:48:34.919Z,73.85
2022-09-23T06:49:36.315Z,73.28
2022-09-23T06:50:37.753Z,73.33
2022-09-23T06:51:39.265Z,73.76
2022-09-23T06:52:40.711Z,73.75
2022-09-23T06:53:42.145Z,73.25
2022-09-23T06:54:44.858Z,73.05
2022-09-23T06:55:46.339Z,72.91
2022-09-23T06:56:47.777Z,72.49
2022-09-23T06:57:49.165Z,72.42
2022-09-23T06:58:51.405Z,72.10
2022-09-23T06:59:52.802Z,72.50
2022-09-23T07:01:00.088Z,75.48
2022-09-23T07:02:01.725Z,79.71
2022-09-23T07:03:06.537Z,79.60
2022-09-23T07:04:08.549Z,79.56
2022-09-23T07:05:10.378Z,79.99
2022-09-23T07:06:12.127Z,81.30
2022-09-23T07:07:13.555Z,81.51
2022-09-23T07:08:15.013Z,83.44
2022-09-23T07:09:16.696Z,83.86
2022-09-23T07:10:19.519Z,82.77
2022-09-23T07:11:20.962Z,83.60
2022-09-23T07:12:22.390Z,83.37
2022-09-23T07:13:24.433Z,82.95
2022-09-23T07:14:25.874Z,83.55
2022-09-23T07:15:27.418Z,84.77
2022-09-23T07:16:28.894Z,83.49
2022-09-23T07:17:30.376Z,84.07
2022-09-23T07:18:36.735Z,83.75
2022-09-23T07:19:38.582Z,83.31
2022-09-23T07:20:39.993Z,81.75
2022-09-23T07:21:41.400Z,82.40
2022-09-23T07:22:42.811Z,82.94
2022-09-23T07:23:45.924Z,82.80
2022-09-23T07:24:47.342Z,82.27
2022-09-23T07:25:50.083Z,82.04
2022-09-23T07:26:51.511Z,80.75
2022-09-23T07:27:52.918Z,80.05
2022-09-23T07:28:55.282Z,80.76
2022-09-23T07:29:56.773Z,79.74
2022-09-23T07:31:03.721Z,76.64
2022-09-23T07:32:12.719Z,75.28
2022-09-23T07:33:28.715Z,74.92
2022-09-23T07:34:32.736Z,74.41
2022-09-23T07:35:39.361Z,73.42
2022-09-23T07:36:41.133Z,73.20
2022-09-23T07:37:42.745Z,72.99
2022-09-23T07:38:45.760Z,72.71
2022-09-23T07:39:47.370Z,72.96
2022-09-23T07:40:50.223Z,73.48
2022-09-23T07:41:51.769Z,72.76
2022-09-23T07:42:53.431Z,73.01
2022-09-23T07:43:55.433Z,73.48
2022-09-23T07:44:56.895Z,72.77
2022-09-23T07:45:59.480Z,72.48
2022-09-23T07:47:01.007Z,73.24
2022-09-23T07:48:03.174Z,73.66
2022-09-23T07:49:05.201Z,74.24
2022-09-23T07:50:08.196Z,74.39
2022-09-23T07:51:11.954Z,73.78
2022-09-23T07:52:13.386Z,73.98
2022-09-23T07:53:14.824Z,74.46
2022-09-23T07:54:17.102Z,74.24
2022-09-23T07:55:20.964Z,73.54
2022-09-23T07:56:27.421Z,73.72
2022-09-23T07:57:28.853Z,73.16
2022-09-23T07:58:30.327Z,73.14
2022-09-23T07:59:31.732Z,73.02
2022-09-23T08:00:33.242Z,72.63
2022-09-23T08:01:36.615Z,73.65
2022-09-23T08:02:38.092Z,73.11
2022-09-23T08:03:39.781Z,72.69
2022-09-23T08:04:41.199Z,72.36
2022-09-23T08:05:42.729Z,72.16
2022-09-23T08:06:46.629Z,71.62
2022-09-23T08:07:48.067Z,71.75
2022-09-23T08:08:53.186Z,71.80
2022-09-23T08:09:54.964Z,71.36
2022-09-23T08:11:00.730Z,71.44
2022-09-23T08:12:03.971Z,71.24
2022-09-23T08:13:05.621Z,71.12
2022-09-23T08:14:07.211Z,70.81
2022-09-23T08:15:09.333Z,71.21
2022-09-23T08:16:10.774Z,70.72
2022-09-23T08:17:12.803Z,70.62
2022-09-23T08:18:14.201Z,70.96
2022-09-23T08:19:16.567Z,70.71
2022-09-23T08:20:18.139Z,71.30
2022-09-23T08:21:21.450Z,70.80
2022-09-23T08:22:22.974Z,71.97
2022-09-23T08:23:24.850Z,69.49
2022-09-23T08:24:26.420Z,68.60
2022-09-23T08:25:28.037Z,68.42
2022-09-23T08:26:29.646Z,67.75
2022-09-23T08:27:32.562Z,68.00
2022-09-23T08:28:34.024Z,68.49
2022-09-23T08:29:35.424Z,68.00
2022-09-23T08:30:38.983Z,67.73
2022-09-23T08:31:40.800Z,68.08
2022-09-23T08:32:42.266Z,67.80
2022-09-23T08:33:43.680Z,68.27
2022-09-23T08:34:45.085Z,67.76
2022-09-23T08:35:46.515Z,68.21
2022-09-23T08:36:48.506Z,67.98
2022-09-23T08:37:49.935Z,68.52
2022-09-23T08:38:51.368Z,68.80
2022-09-23T08:39:52.799Z,69.33
2022-09-23T08:41:05.530Z,68.27
2022-09-23T08:42:16.114Z,67.68
2022-09-23T08:43:25.030Z,66.80
2022-09-23T08:44:33.648Z,67.49
2022-09-23T08:45:37.590Z,67.99
2022-09-23T08:46:44.837Z,68.39
2022-09-23T08:47:52.239Z,68.26
2022-09-23T08:48:54.934Z,67.97
2022-09-23T08:50:01.690Z,67.35
2022-09-23T08:51:06.203Z,67.40
2022-09-23T08:52:15.861Z,68.17
2022-09-23T08:53:23.479Z,68.90
2022-09-23T08:54:31.473Z,68.48
2022-09-23T08:55:35.575Z,68.70
2022-09-23T08:56:37.989Z,69.27
2022-09-23T08:58:02.276Z,69.32
2022-09-23T08:59:17.527Z,69.43
2022-09-23T09:00:21.034Z,69.24
2022-09-23T09:01:29.849Z,68.12
2022-09-23T09:02:34.871Z,69.07
2022-09-23T09:03:42.752Z,69.59
2022-09-23T09:04:47.164Z,68.89
2022-09-23T09:05:54.199Z,68.94
2022-09-23T09:07:18.306Z,69.13
2022-09-23T09:08:28.059Z,69.45
2022-09-23T09:09:32.834Z,69.61
2022-09-23T09:10:41.179Z,69.70
2022-09-23T09:11:48.768Z,69.79
2022-09-23T09:12:55.806Z,69.91
2022-09-23T09:14:03.522Z,68.89
2022-09-23T09:15:11.636Z,69.42
2022-09-23T09:16:55.636Z,69.77
2022-09-23T09:17:59.635Z,69.98
2022-09-23T09:19:01.678Z,69.58
2022-09-23T09:20:17.556Z,68.83
2022-09-23T09:21:21.345Z,68.45
2022-09-23T09:22:39.073Z,68.70
2022-09-23T09:23:45.830Z,69.36
2022-09-23T09:24:49.108Z,68.56
2022-09-23T09:25:52.508Z,67.77
2022-09-23T09:26:54.018Z,67.17
2022-09-23T09:27:56.986Z,67.08
2022-09-23T09:29:17.270Z,68.11
2022-09-23T09:30:27.780Z,68.25
2022-09-23T09:31:32.643Z,68.02
2022-09-23T09:32:41.649Z,68.86
2022-09-23T09:33:52.064Z,68.86
2022-09-23T09:34:59.092Z,68.69
2022-09-23T09:36:20.636Z,70.20
2022-09-23T09:37:27.705Z,69.94
2022-09-23T09:38:29.248Z,69.47
2022-09-23T09:39:30.920Z,69.76
2022-09-23T09:40:34.093Z,68.69
2022-09-23T09:41:35.575Z,67.66
2022-09-23T09:42:38.760Z,67.45
2022-09-23T09:43:44.027Z,67.35
2022-09-23T09:44:50.441Z,67.71
2022-09-23T09:46:04.057Z,66.81
2022-09-23T09:47:21.729Z,67.57
2022-09-23T09:48:29.101Z,66.84
2022-09-23T09:49:40.376Z,67.05
2022-09-23T09:50:45.404Z,66.92
2022-09-23T09:51:46.821Z,67.19
2022-09-23T09:52:48.878Z,66.10
2022-09-23T09:53:50.728Z,66.09
2022-09-23T09:54:52.953Z,66.32
2022-09-23T09:56:04.591Z,66.69
2022-09-23T09:57:17.164Z,66.92
2022-09-23T09:58:18.686Z,67.39
2022-09-23T09:59:26.058Z,66.58
2022-09-23T10:00:37.917Z,67.10
2022-09-23T10:01:40.739Z,66.36
2022-09-23T10:02:42.635Z,66.15
2022-09-23T10:03:44.659Z,66.68
2022-09-23T10:04:46.154Z,66.39
2022-09-23T10:05:50.005Z,66.09
2022-09-23T10:07:06.197Z,66.23
2022-09-23T10:08:22.634Z,66.08
2022-09-23T10:09:32.311Z,65.80
2022-09-23T10:10:34.017Z,65.99
2022-09-23T10:11:35.989Z,64.97
2022-09-23T10:12:43.679Z,67.00
2022-09-23T10:14:10.606Z,65.96
2022-09-23T10:15:27.296Z,65.66
2022-09-23T10:16:29.949Z,65.20
2022-09-23T10:17:34.274Z,64.73
2022-09-23T10:18:38.198Z,64.69
2022-09-23T10:19:45.247Z,66.03
2022-09-23T10:20:48.197Z,65.95
2022-09-23T10:21:52.528Z,65.95
2022-09-23T10:22:54.036Z,65.05
2022-09-23T10:23:57.815Z,65.13
2022-09-23T10:25:02.461Z,65.26
2022-09-23T10:26:06.752Z,64.11
2022-09-23T10:27:10.368Z,65.20
2022-09-23T10:28:32.605Z,65.65
2022-09-23T10:29:38.254Z,65.93
2022-09-23T10:30:39.746Z,66.47
2022-09-23T10:31:41.231Z,65.83
2022-09-23T10:32:45.026Z,66.36
2022-09-23T10:33:48.934Z,66.93
2022-09-23T10:34:53.017Z,67.33
2022-09-23T10:35:54.438Z,67.46
2022-09-23T10:37:02.404Z,67.36
2022-09-23T10:38:03.912Z,67.30
2022-09-23T10:39:06.369Z,67.21
2022-09-23T10:40:19.846Z,67.39
2022-09-23T10:41:31.542Z,66.63
2022-09-23T10:42:49.313Z,67.04
2022-09-23T10:44:03.538Z,67.14
2022-09-23T10:45:17.270Z,67.36
2022-09-23T10:46:23.535Z,67.04
2022-09-23T10:47:34.127Z,67.63
2022-09-23T10:48:51.082Z,67.19
2022-09-23T10:50:08.802Z,67.80
2022-09-23T10:51:24.078Z,67.97
2022-09-23T10:52:43.976Z,67.64
2022-09-23T10:53:55.143Z,68.40
2022-09-23T10:55:07.277Z,68.89
2022-09-23T10:56:19.901Z,67.50
2022-09-23T10:57:35.872Z,67.85
2022-09-23T10:59:02.123Z,69.53
2022-09-23T11:00:10.726Z,68.12
2022-09-23T11:01:25.427Z,66.44
2022-09-23T11:02:51.568Z,66.54
2022-09-23T11:04:21.372Z,67.28
2022-09-23T11:05:36.881Z,67.08
2022-09-23T11:06:48.048Z,65.68
2022-09-23T11:08:02.608Z,67.38
2022-09-23T11:09:18.422Z,66.92
2022-09-23T11:10:46.250Z,65.06
2022-09-23T11:12:01.070Z,64.42
2022-09-23T11:13:09.908Z,64.84
2022-09-23T11:14:26.293Z,65.42
2022-09-23T11:15:42.326Z,64.45
2022-09-23T11:17:02.760Z,63.48
2022-09-23T11:18:20.887Z,62.95
2022-09-23T11:19:45.712Z,63.14
2022-09-23T11:20:56.313Z,62.96
2022-09-23T11:22:15.381Z,64.02
2022-09-23T11:23:35.061Z,64.48
2022-09-23T11:24:54.021Z,62.62
2022-09-23T11:26:05.561Z,64.19
2022-09-23T11:27:17.523Z,64.23
2022-09-23T11:28:35.666Z,63.17
2022-09-23T11:29:55.332Z,63.42
2022-09-23T11:31:02.712Z,63.08
2022-09-23T11:32:24.920Z,64.01
2022-09-23T11:33:44.666Z,64.36
2022-09-23T11:35:00.535Z,64.70
2022-09-23T11:36:07.398Z,65.04
2022-09-23T11:37:14.277Z,63.96
2022-09-23T11:38:19.840Z,64.28
2022-09-23T11:39:25.352Z,62.65
2022-09-23T11:40:31.361Z,62.92
2022-09-23T11:41:37.096Z,63.34
2022-09-23T11:42:46.100Z,62.71
2022-09-23T11:43:51.562Z,62.02
2022-09-23T11:44:58.293Z,61.78
2022-09-23T11:46:06.662Z,62.38
2022-09-23T11:47:14.192Z,60.72
2022-09-23T11:48:20.154Z,61.34
2022-09-23T11:49:29.696Z,61.39
2022-09-23T11:50:38.077Z,59.87
2022-09-23T11:51:48.597Z,60.23
2022-09-23T11:52:56.485Z,61.76
2022-09-23T11:54:02.106Z,59.89
2022-09-23T11:55:19.420Z,59.98
2022-09-23T11:56:34.601Z,59.09
2022-09-23T11:57:48.456Z,59.98
2022-09-23T11:59:00.730Z,60.58
2022-09-23T12:00:07.113Z,59.14
2022-09-23T12:01:13.187Z,60.14
2022-09-23T12:02:25.664Z,59.57
2022-09-23T12:03:44.876Z,59.83
2022-09-23T12:04:57.623Z,61.07
2022-09-23T12:06:05.258Z,61.33
2022-09-23T12:07:14.735Z,60.30
2022-09-23T12:08:24.185Z,60.08
2022-09-23T12:09:56.704Z,59.72
2022-09-23T12:11:01.067Z,60.80
2022-09-23T12:12:12.463Z,60.12
2022-09-23T12:13:18.600Z,60.37
2022-09-23T12:14:27.287Z,59.89
2022-09-23T12:15:40.380Z,59.19
2022-09-23T12:17:23.165Z,60.41
2022-09-23T12:18:36.595Z,61.12
2022-09-23T12:19:57.855Z,61.96
2022-09-23T12:21:49.651Z,61.22
2022-09-23T12:23:04.249Z,61.35
2022-09-23T12:24:42.089Z,63.50
2022-09-23T12:25:48.256Z,62.46
2022-09-23T12:26:52.873Z,62.68
2022-09-23T12:28:00.338Z,62.67
2022-09-23T12:29:04.677Z,60.54
2022-09-23T12:30:14.209Z,59.75
2022-09-23T12:31:18.065Z,59.68
2022-09-23T12:32:19.796Z,59.69
2022-09-23T12:33:23.420Z,60.32
2022-09-23T12:34:30.081Z,60.92
2022-09-23T12:35:38.036Z,60.99
2022-09-23T12:36:40.833Z,61.97
2022-09-23T12:37:42.408Z,60.85
2022-09-23T12:38:48.729Z,60.82
2022-09-23T12:39:50.231Z,60.64
2022-09-23T12:40:53.567Z,60.55
2022-09-23T12:41:58.820Z,61.21
2022-09-23T12:43:01.222Z,62.02
2022-09-23T12:44:15.067Z,62.09
2022-09-23T12:45:35.371Z,60.65
2022-09-23T12:46:36.964Z,60.36
2022-09-23T12:47:39.582Z,59.67
2022-09-23T12:48:46.623Z,61.12
2022-09-23T12:49:48.573Z,60.61
2022-09-23T12:50:52.992Z,60.27
2022-09-23T12:52:23.104Z,59.68
2022-09-23T12:53:55.759Z,59.43
2022-09-23T12:54:58.719Z,60.84
2022-09-23T12:56:01.194Z,59.32
2022-09-23T12:57:13.875Z,60.36
2022-09-23T12:58:56.613Z,59.72
2022-09-23T13:00:13.251Z,59.10
2022-09-23T13:01:19.045Z,58.50
2022-09-23T13:02:27.370Z,57.70
2022-09-23T13:03:28.909Z,58.70
2022-09-23T13:04:34.248Z,58.59
2022-09-23T13:05:43.631Z,58.73
2022-09-23T13:06:56.115Z,58.74
2022-09-23T13:08:04.952Z,59.66
2022-09-23T13:09:12.620Z,59.42
2022-09-23T13:10:22.585Z,58.79
2022-09-23T13:11:28.107Z,59.34
2022-09-23T13:12:34.755Z,57.92
2022-09-23T13:13:39.907Z,58.13
2022-09-23T13:14:45.422Z,58.23
2022-09-23T13:15:47.539Z,58.14
2022-09-23T13:16:49.744Z,57.40
2022-09-23T13:17:51.274Z,57.77
2022-09-23T13:18:53.942Z,58.38
2022-09-23T13:20:01.312Z,58.60
2022-09-23T13:21:16.949Z,58.54
2022-09-23T13:22:40.433Z,58.44
2022-09-23T13:24:34.284Z,58.40
2022-09-23T13:25:41.985Z,58.85
2022-09-23T13:26:45.466Z,58.40
2022-09-23T13:27:49.457Z,58.59
2022-09-23T13:28:56.840Z,58.62
2022-09-23T13:30:02.685Z,58.45
2022-09-23T13:31:06.709Z,58.11
2022-09-23T13:32:12.411Z,58.43
2022-09-23T13:33:18.964Z,59.28
2022-09-23T13:34:22.933Z,60.00
2022-09-23T13:35:29.605Z,59.05
2022-09-23T13:36:43.477Z,58.47
2022-09-23T13:37:46.722Z,57.63
2022-09-23T13:38:48.183Z,58.43
2022-09-23T13:39:51.157Z,60.04
2022-09-23T13:40:54.665Z,60.24
2022-09-23T13:42:01.506Z,58.78
2022-09-23T13:43:06.162Z,58.28
2022-09-23T13:44:16.090Z,58.28
2022-09-23T13:45:20.938Z,58.66
2022-09-23T13:46:25.154Z,58.39
2022-09-23T13:47:29.403Z,58.54
2022-09-23T13:48:31.961Z,58.41
2022-09-23T13:49:35.118Z,58.84
2022-09-23T13:50:39.291Z,58.15
2022-09-23T13:51:44.576Z,58.11
2022-09-23T13:52:50.929Z,58.13
2022-09-23T13:53:53.515Z,57.73
2022-09-23T13:54:56.539Z,58.12
2022-09-23T13:56:03.738Z,58.03
2022-09-23T13:57:05.168Z,58.30
2022-09-23T13:58:15.064Z,58.56
2022-09-23T13:59:24.956Z,58.94
2022-09-23T14:00:26.826Z,58.16
2022-09-23T14:01:31.085Z,58.73
2022-09-23T14:02:32.639Z,58.76
2022-09-23T14:03:37.375Z,58.37
2022-09-23T14:04:38.973Z,59.07
2022-09-23T14:05:40.499Z,58.53
2022-09-23T14:06:41.933Z,58.35
2022-09-23T14:07:44.664Z,57.44
2022-09-23T14:08:47.901Z,57.44
2022-09-23T14:09:52.185Z,57.63
2022-09-23T14:10:55.857Z,58.23